createdAt,value
2023-12-05T00:04:03.562Z,2.77
2023-12-05T00:09:08.391Z,5.43
2023-12-05T00:14:11.897Z,4.27
2023-12-05T00:19:16.571Z,1.97
2023-12-05T00:24:19.585Z,3.40
2023-12-05T00:29:22.979Z,2.97
2023-12-05T00:34:26.173Z,2.93
2023-12-05T00:39:29.339Z,4.93
2023-12-05T00:44:32.665Z,5.77
2023-12-05T00:49:35.836Z,3.77
2023-12-05T00:54:39.237Z,2.67
2023-12-05T00:59:42.492Z,4.23
2023-12-05T01:04:46.241Z,4.53
2023-12-05T01:09:50.104Z,4.10
2023-12-05T01:14:56.407Z,2.43
2023-12-05T01:19:59.580Z,4.10
2023-12-05T01:25:03.273Z,3.90
2023-12-05T01:30:07.339Z,5.23
2023-12-05T01:35:12.955Z,4.63
2023-12-05T01:40:16.614Z,2.87
2023-12-05T01:45:19.695Z,4.50
2023-12-05T01:50:26.976Z,3.70
2023-12-05T01:55:30.927Z,2.97
2023-12-05T02:00:34.391Z,3.87
2023-12-05T02:05:38.525Z,3.30
2023-12-05T02:10:41.920Z,4.20
2023-12-05T02:15:45.246Z,4.10
2023-12-05T02:21:00.505Z,3.30
2023-12-05T02:26:32.681Z,2.23
2023-12-05T02:31:35.744Z,1.10
2023-12-05T02:36:57.653Z,2.37
2023-12-05T02:42:03.579Z,1.50
2023-12-05T02:47:09.624Z,2.63
2023-12-05T02:52:13.186Z,1.70
2023-12-05T02:57:17.892Z,5.30
2023-12-05T03:02:21.076Z,2.83
2023-12-05T03:07:24.476Z,4.63
2023-12-05T03:12:28.063Z,3.50
2023-12-05T03:17:32.025Z,3.37
2023-12-05T03:22:35.493Z,2.37
2023-12-05T03:27:38.701Z,4.40
2023-12-05T03:32:41.924Z,2.90
2023-12-05T03:37:45.020Z,3.97
2023-12-05T03:42:48.172Z,3.67
2023-12-05T03:47:51.389Z,2.03
2023-12-05T03:52:54.775Z,2.77
2023-12-05T03:57:58.265Z,1.43
2023-12-05T04:03:01.477Z,1.27
2023-12-05T04:08:05.338Z,3.33
2023-12-05T04:13:10.200Z,1.53
2023-12-05T04:18:13.629Z,2.40
2023-12-05T04:23:16.935Z,4.43
2023-12-05T04:28:20.119Z,1.90
2023-12-05T04:33:23.342Z,4.00
2023-12-05T04:38:26.630Z,3.17
2023-12-05T04:43:32.294Z,2.73
2023-12-05T04:48:35.589Z,4.27
2023-12-05T04:53:38.938Z,3.63
2023-12-05T04:58:43.657Z,1.97
2023-12-05T05:03:46.900Z,2.50
2023-12-05T05:08:50.323Z,4.23
2023-12-05T05:13:58.528Z,3.60
2023-12-05T05:19:02.826Z,1.60
2023-12-05T05:24:06.891Z,1.20
2023-12-05T05:29:10.069Z,2.30
2023-12-05T05:34:13.955Z,3.57
2023-12-05T05:39:17.067Z,1.90
2023-12-05T05:44:20.070Z,3.33
2023-12-05T05:49:23.310Z,2.73
2023-12-05T05:54:26.689Z,1.60
2023-12-05T05:59:31.379Z,2.00
2023-12-05T06:04:34.853Z,1.73
2023-12-05T06:09:38.089Z,2.30
2023-12-05T06:14:41.787Z,1.47
2023-12-05T06:19:45.059Z,1.93
2023-12-05T06:24:48.290Z,3.80
2023-12-05T06:29:52.067Z,1.77
2023-12-05T06:34:55.237Z,2.43
2023-12-05T06:39:59.275Z,1.47
2023-12-05T06:45:04.084Z,1.63
2023-12-05T06:50:12.845Z,2.63
2023-12-05T06:55:16.666Z,1.93
2023-12-05T07:00:20.851Z,1.90
2023-12-05T07:05:24.305Z,3.23
2023-12-05T07:10:28.423Z,2.47
2023-12-05T07:15:32.177Z,1.60
2023-12-05T07:20:36.090Z,2.73
2023-12-05T07:25:39.926Z,2.63
2023-12-05T07:30:43.406Z,1.93
2023-12-05T07:35:46.842Z,4.40
2023-12-05T07:40:49.896Z,2.40
2023-12-05T07:45:53.033Z,2.90
2023-12-05T07:50:56.334Z,3.00
2023-12-05T07:55:59.599Z,3.60
2023-12-05T08:01:03.061Z,3.40
2023-12-05T08:06:06.753Z,5.77
2023-12-05T08:11:11.568Z,7.10
2023-12-05T08:16:15.480Z,6.00
2023-12-05T08:21:18.943Z,9.43
2023-12-05T08:26:22.365Z,4.67
2023-12-05T08:31:26.812Z,4.47
2023-12-05T08:36:30.237Z,5.33
2023-12-05T08:41:33.687Z,6.20
2023-12-05T08:46:37.621Z,11.33
2023-12-05T08:51:41.022Z,6.90
2023-12-05T08:56:44.741Z,5.30
2023-12-05T09:01:49.427Z,5.43
2023-12-05T09:06:53.134Z,8.23
2023-12-05T09:12:00.525Z,5.43
2023-12-05T09:17:04.902Z,8.30
2023-12-05T09:22:09.090Z,6.60
2023-12-05T09:27:12.504Z,8.57
2023-12-05T09:32:15.826Z,8.77
2023-12-05T09:37:19.222Z,7.33
2023-12-05T09:42:26.817Z,8.00
2023-12-05T09:47:32.206Z,7.67
2023-12-05T09:52:36.328Z,7.87
2023-12-05T09:57:41.365Z,8.37
2023-12-05T10:02:48.212Z,7.63
2023-12-05T10:07:53.061Z,10.20
2023-12-05T10:12:57.746Z,9.13
2023-12-05T10:18:02.116Z,8.00
2023-12-05T10:23:06.650Z,8.60
2023-12-05T10:28:11.066Z,8.00
2023-12-05T10:33:17.145Z,8.97
2023-12-05T10:38:21.221Z,8.47
2023-12-05T10:43:26.251Z,10.70
2023-12-05T10:48:29.855Z,8.57
2023-12-05T10:53:39.331Z,9.70
2023-12-05T10:58:43.569Z,8.20
2023-12-05T11:03:48.290Z,6.77
2023-12-05T11:08:52.491Z,9.83
2023-12-05T11:13:59.513Z,6.97
2023-12-05T11:19:28.954Z,5.83
2023-12-05T11:24:57.537Z,7.57
2023-12-05T11:30:15.467Z,9.17
2023-12-05T11:35:46.236Z,7.93
2023-12-05T11:41:11.922Z,9.13
2023-12-05T11:46:18.177Z,7.13
2023-12-05T11:51:21.859Z,8.70
2023-12-05T11:56:25.388Z,9.33
2023-12-05T12:01:28.720Z,11.07
2023-12-05T12:06:33.612Z,8.17
2023-12-05T12:11:37.463Z,9.77
2023-12-05T12:16:41.622Z,9.17
2023-12-05T12:21:46.495Z,10.77
2023-12-05T12:26:58.747Z,9.10
2023-12-05T12:32:13.085Z,16.20
2023-12-05T12:37:21.111Z,8.47
2023-12-05T12:42:26.028Z,8.63
2023-12-05T12:47:29.248Z,9.43
2023-12-05T12:52:32.754Z,9.43
2023-12-05T12:57:36.373Z,7.93
2023-12-05T13:02:39.811Z,6.80
2023-12-05T13:07:43.145Z,7.10
2023-12-05T13:12:47.176Z,10.30
2023-12-05T13:18:01.058Z,9.13
2023-12-05T13:23:04.444Z,8.43
2023-12-05T13:28:08.034Z,8.73
2023-12-05T13:33:13.611Z,8.13
2023-12-05T13:38:17.635Z,9.93
2023-12-05T13:43:20.879Z,7.90
2023-12-05T13:48:24.293Z,11.77
2023-12-05T13:53:27.609Z,9.93
2023-12-05T13:58:31.317Z,8.53
2023-12-05T14:03:35.102Z,10.27
2023-12-05T14:08:38.663Z,8.80
2023-12-05T14:13:41.799Z,6.07
2023-12-05T14:18:45.087Z,8.47
2023-12-05T14:23:48.958Z,8.93
2023-12-05T14:28:52.268Z,8.33
2023-12-05T14:33:56.095Z,6.70
2023-12-05T14:39:04.506Z,7.70
2023-12-05T14:44:14.018Z,8.80
2023-12-05T14:49:18.173Z,6.33
2023-12-05T14:54:23.046Z,6.03
2023-12-05T14:59:26.180Z,7.03
2023-12-05T15:04:29.691Z,5.70
2023-12-05T15:09:35.562Z,5.37
2023-12-05T15:14:38.968Z,6.63
2023-12-05T15:20:17.313Z,8.60
2023-12-05T15:25:06.168Z,5.93
2023-12-05T15:30:10.482Z,5.47
2023-12-05T15:35:13.814Z,3.07
2023-12-05T15:40:17.874Z,7.37
2023-12-05T15:45:22.061Z,4.53
2023-12-05T15:50:25.532Z,5.03
2023-12-05T15:55:29.108Z,4.90
2023-12-05T16:00:33.194Z,4.03
2023-12-05T16:05:36.534Z,5.67
2023-12-05T16:10:40.660Z,7.33
2023-12-05T16:15:43.967Z,6.60
2023-12-05T16:20:49.828Z,7.23
2023-12-05T16:25:54.131Z,6.47
2023-12-05T16:30:57.826Z,9.23
2023-12-05T16:36:02.252Z,6.37
2023-12-05T16:41:05.851Z,6.30
2023-12-05T16:46:09.702Z,6.23
2023-12-05T16:51:12.863Z,6.70
2023-12-05T16:56:16.428Z,5.77
2023-12-05T17:01:20.294Z,6.60
2023-12-05T17:06:24.665Z,5.67
2023-12-05T17:11:28.347Z,4.10
2023-12-05T17:16:32.214Z,3.80
2023-12-05T17:21:39.423Z,4.37
2023-12-05T17:26:42.808Z,4.10
2023-12-05T17:31:46.160Z,5.50
2023-12-05T17:36:50.008Z,2.87
2023-12-05T17:41:53.825Z,4.53
2023-12-05T17:46:57.873Z,3.20
2023-12-05T17:52:01.045Z,3.73
2023-12-05T17:57:05.641Z,2.67
2023-12-05T18:02:09.651Z,3.60
2023-12-05T18:07:51.177Z,5.00
2023-12-05T18:12:37.144Z,2.57
2023-12-05T18:17:41.397Z,4.10
2023-12-05T18:22:47.509Z,4.27
2023-12-05T18:27:54.219Z,3.83
2023-12-05T18:32:59.743Z,3.23
2023-12-05T18:38:03.977Z,4.17
2023-12-05T18:43:09.014Z,2.37
2023-12-05T18:48:13.996Z,4.70
2023-12-05T18:53:18.985Z,3.67
2023-12-05T18:58:23.720Z,3.43
2023-12-05T19:03:28.221Z,3.67
2023-12-05T19:08:32.983Z,4.93
2023-12-05T19:13:38.184Z,5.00
2023-12-05T19:18:42.032Z,4.20
2023-12-05T19:23:46.517Z,6.63
2023-12-05T19:28:57.643Z,5.03
2023-12-05T19:34:03.525Z,4.07
2023-12-05T19:39:10.441Z,6.67
2023-12-05T19:44:16.260Z,6.70
2023-12-05T19:49:21.854Z,5.03
2023-12-05T19:54:28.285Z,3.20
2023-12-05T19:59:33.507Z,3.90
2023-12-05T20:04:38.801Z,3.17
2023-12-05T20:09:42.500Z,3.30
2023-12-05T20:14:47.141Z,3.97
2023-12-05T20:19:50.771Z,4.07
2023-12-05T20:24:55.111Z,3.77
2023-12-05T20:29:59.218Z,4.43
2023-12-05T20:35:04.596Z,4.07
2023-12-05T20:40:09.114Z,4.10
2023-12-05T20:45:14.691Z,4.33
2023-12-05T20:50:20.777Z,3.83
2023-12-05T20:55:24.833Z,5.53
2023-12-05T21:00:29.269Z,3.87
2023-12-05T21:05:33.492Z,5.00
2023-12-05T21:10:37.777Z,3.63
2023-12-05T21:15:42.578Z,2.57
2023-12-05T21:20:46.660Z,2.73
2023-12-05T21:25:50.985Z,3.30
2023-12-05T21:30:55.499Z,7.10
2023-12-05T21:36:00.260Z,4.70
2023-12-05T21:41:05.088Z,5.53
2023-12-05T21:46:10.495Z,8.17
2023-12-05T21:51:14.097Z,5.07
2023-12-05T21:56:18.985Z,8.83
2023-12-05T22:01:22.894Z,8.40
2023-12-05T22:06:26.673Z,6.03
2023-12-05T22:11:30.153Z,10.37
2023-12-05T22:16:33.556Z,6.23
2023-12-05T22:21:44.417Z,6.57
2023-12-05T22:26:47.744Z,7.90
2023-12-05T22:31:50.967Z,6.40
2023-12-05T22:36:56.818Z,8.07
2023-12-05T22:42:00.593Z,7.63
2023-12-05T22:47:04.621Z,8.97
2023-12-05T22:52:08.146Z,5.60
2023-12-05T22:57:11.160Z,9.33
2023-12-05T23:02:14.204Z,5.73
2023-12-05T23:07:17.479Z,7.77
2023-12-05T23:12:21.040Z,7.77
2023-12-05T23:17:24.502Z,9.60
2023-12-05T23:22:28.422Z,4.07
2023-12-05T23:27:32.054Z,5.47
2023-12-05T23:32:35.388Z,9.10
2023-12-05T23:37:38.868Z,7.80
2023-12-05T23:42:42.001Z,8.53
2023-12-05T23:47:45.098Z,9.47
2023-12-05T23:52:48.696Z,7.33
2023-12-05T23:57:51.942Z,7.07
